Accueil
METAR-TAF:

METAR-TAF

Aéroports :

Anatom, Vanuatu

latitude: 20-14-57S, longitude: 169-46-17E, altitude: 2 m

Observation

Le bulletin a été fait il y a 2 heures et 27 minutes, à 18:00 UTC
Vent 2 kt de nord/nord-est
Température 23°C
Humidité 94%
Pression 1012 hPa

METAR: NVVA 221800Z AUTO 02002KT //// // NCD 23/22 Q1012 RMK NIL

Heure: 07:27 (20:27 UTC)

Prévision

Le bulletin a été fait il y a 4 heures et 27 minutes, à 16:00 UTC
Prévision valable du 22 à 18 UTC au 23 à 18 UTC
Vent 10 kt de est
Visibilité 10 km ou plus
Nuages épars à une hauteur de 2000 ft
Probabilité 30%
entre IN et TE UTC
Visibilité: 9000 m
Nuages fragmentés à une hauteur de 1800 ft
faibles averses de pluie

TAF: NVVA 221600Z 2218/2318 10010KT 9999 SCT020 PROB30 INTER 2218/2224 9000 -SHRA BKN018

Observations et prévisions météorologiques de plus de 4000 aéroports (messages METAR et TAF).

Les stations disponibles sont représentées par des disques jaunes et rouges sur la carte.

Passer la souris dessus pour voir le nom de la station.

Cliquer dessus pour voir les observations et prévisions météorologiques.

Pour changer de carte: cliquez sur les boutons verts avec une croix noire pour zoomer, sur le bouton vert avec un tiret pour effectuer un zoom arrière, ou sur les flèches vertes pour les cartes adjacentes.


METAR-TAF: